Weather reports worldwide

Advertisment
Malaga,Puerto, Spain (8479): temperature & dewpoint: 06.12.2019 11:00:00 - 12.12.2019 11:00:00 (CET)Malaga,Puerto, Spain (8479): wind speed & gusts: 06.12.2019 11:00:00 - 12.12.2019 11:00:00 (CET)Malaga,Puerto, Spain (8479): wind direction: 06.12.2019 11:00:00 - 12.12.2019 11:00:00 (CET)Malaga,Puerto, Spain (8479): reduced air pressure: 06.12.2019 11:00:00 - 12.12.2019 11:00:00 (CET)Malaga,Puerto, Spain (8479): precipitation: 06.12.2019 11:00:00 - 12.12.2019 11:00:00 (CET)
Date & Time tt [°C] td [°C] ff [km/h] ff [kn] fx [km/h] fx [kn] dd ppp [hPa] rr [mm]
12.12.2019 11:00:00 - - - - - - - - -
12.12.2019 10:00:00 12,6 2,1 8 5 32 18 WNW 1026,1 0,0
12.12.2019 09:00:00 11,8 1,5 18 10 46 25 W 1026,0 0,0
12.12.2019 08:00:00 11,8 1,5 25 13 41 22 WNW 1025,0 0,0
12.12.2019 07:00:00 11,7 1,3 18 10 73 40 W 1025,7 -
12.12.2019 06:00:00 11,9 1,5 22 12 40 22 WNW 1025,7 0,0
12.12.2019 05:00:00 12,3 2,1 21 12 40 22 WNW 1025,8 0,0
12.12.2019 04:00:00 12,5 3,2 16 9 33 18 W 1026,1 0,0
12.12.2019 03:00:00 13,0 3,4 20 11 35 19 W 1025,8 0,0
12.12.2019 02:00:00 13,0 3,4 10 5 24 13 W 1025,5 0,0
12.12.2019 01:00:00 14,0 3,4 8 5 39 21 WNW 1025,4 -
12.12.2019 00:00:00 14,3 3,8 16 8 42 23 WNW 1025,8 0,0
11.12.2019 23:00:00 14,3 4,6 17 9 45 24 NW 1025,4 0,0
11.12.2019 22:00:00 15,2 4,5 16 9 54 29 NW 1025,3 0,0
11.12.2019 21:00:00 15,8 5,1 18 10 51 28 NW 1025,3 0,0
11.12.2019 20:00:00 16,2 5,5 16 8 33 18 WNW 1025,5 0,0
11.12.2019 19:00:00 16,9 5,8 15 8 38 21 WNW 1025,0 -
11.12.2019 18:00:00 17,7 5,3 15 8 40 22 NW 1024,4 0,0
11.12.2019 17:00:00 18,8 3,0 10 6 30 16 WNW 1023,4 0,0
11.12.2019 16:00:00 19,7 -1,0 14 7 35 19 WNW 1022,9 0,0
11.12.2019 15:00:00 19,6 -2,7 18 10 41 22 WNW 1022,8 0,0
11.12.2019 14:00:00 20,7 -0,7 14 7 42 23 NW 1023,3 0,0
11.12.2019 13:00:00 20,3 0,2 18 10 40 22 NW 1023,6 -
11.12.2019 12:00:00 20,4 2,7 13 7 29 16 WNW 1024,3 0,0
11.12.2019 11:00:00 19,8 3,4 9 5 26 14 W 1024,7 0,0
11.12.2019 10:00:00 17,4 2,5 11 6 30 16 WSW 1024,4 0,0
11.12.2019 09:00:00 15,2 0,9 16 8 24 13 SW 1024,1 0,0
11.12.2019 08:00:00 15,0 1,1 14 7 26 14 WSW 1024,1 0,0
11.12.2019 07:00:00 15,5 1,7 11 6 22 12 W 1023,7 -
11.12.2019 06:00:00 15,6 0,9 11 6 21 12 W 1023,4 0,0
11.12.2019 05:00:00 15,7 0,0 10 6 31 17 WSW 1023,4 0,0
11.12.2019 04:00:00 16,8 0,4 11 6 25 13 W 1023,3 0,0
11.12.2019 03:00:00 15,9 -0,5 11 6 30 16 WSW 1023,8 0,0
11.12.2019 02:00:00 16,0 -0,3 13 7 25 13 W 1024,1 0,0
11.12.2019 01:00:00 13,7 1,3 6 3 15 8 NNW 1024,7 -
11.12.2019 00:00:00 13,2 3,2 3 2 6 3 NW 1025,0 0,0
10.12.2019 23:00:00 13,7 2,9 1 0 11 6 NE 1024,9 0,0
10.12.2019 22:00:00 13,9 5,8 4 2 10 5 NW 1024,9 0,0
10.12.2019 21:00:00 14,3 8,3 2 1 11 6 NNW 1025,1 0,0
10.12.2019 20:00:00 14,9 9,0 5 3 9 5 NNW 1025,3 0,0
10.12.2019 19:00:00 15,1 10,5 3 1 6 4 ENE 1025,1 -
10.12.2019 18:00:00 15,5 10,3 3 1 7 4 E 1025,0 0,0
10.12.2019 17:00:00 17,8 10,2 3 2 8 4 ESE 1025,0 0,0
10.12.2019 16:00:00 17,8 10,9 5 3 16 8 SSE 1024,9 0,0
10.12.2019 15:00:00 18,5 10,3 7 4 12 7 S 1025,0 0,0
10.12.2019 14:00:00 18,2 9,3 10 5 13 7 SSW 1025,7 0,0
10.12.2019 13:00:00 20,1 6,4 5 3 8 5 SSW 1027,0 -
10.12.2019 12:00:00 20,8 6,7 3 2 6 3 E 1027,9 0,0
10.12.2019 11:00:00 18,9 4,6 1 1 10 5 W 1028,2 0,0
10.12.2019 10:00:00 15,5 0,2 6 3 16 9 NNW 1027,6 0,0
10.12.2019 09:00:00 13,0 0,0 9 5 15 8 N 1027,4 0,0
10.12.2019 08:00:00 12,4 4,1 6 3 21 11 NNW 1027,4 0,0
10.12.2019 07:00:00 12,9 6,2 12 7 23 12 W 1027,1 -
10.12.2019 06:00:00 13,1 6,2 9 5 17 9 WNW 1026,7 0,0
10.12.2019 05:00:00 13,6 6,8 11 6 18 10 WNW 1027,1 0,0
10.12.2019 04:00:00 13,4 4,8 9 5 17 9 NNW 1027,2 0,0
10.12.2019 03:00:00 14,5 7,6 8 5 20 11 NW 1027,1 0,0
10.12.2019 02:00:00 15,1 7,6 8 5 21 11 WNW 1027,4 0,0
10.12.2019 01:00:00 15,7 8,3 13 7 24 13 W 1027,6 -
10.12.2019 00:00:00 15,8 8,3 10 5 26 14 W 1027,7 0,0
09.12.2019 23:00:00 16,0 8,7 10 6 27 14 WNW 1027,5 0,0
09.12.2019 22:00:00 16,2 8,9 14 7 29 15 WNW 1027,8 0,0
09.12.2019 21:00:00 16,0 8,7 11 6 27 15 W 1027,6 0,0
09.12.2019 20:00:00 16,4 8,7 13 7 29 16 W 1027,2 0,0
09.12.2019 19:00:00 17,1 8,5 11 6 29 16 W 1026,7 -
09.12.2019 18:00:00 18,5 8,4 14 8 43 23 WSW 1026,3 0,0
09.12.2019 17:00:00 20,2 8,8 13 7 26 14 WSW 1025,9 0,0
09.12.2019 16:00:00 20,3 8,7 14 7 28 15 WSW 1025,9 0,0
09.12.2019 15:00:00 20,7 8,9 10 5 28 15 WSW 1026,2 0,0
09.12.2019 14:00:00 20,8 9,4 12 6 31 17 WSW 1026,5 0,0
09.12.2019 13:00:00 19,2 9,4 16 9 34 18 W 1027,3 -
09.12.2019 12:00:00 19,7 9,6 9 5 38 20 W 1028,1 0,0
09.12.2019 11:00:00 18,6 9,0 16 9 36 19 W 1028,1 0,0
09.12.2019 10:00:00 17,3 8,7 18 10 35 19 W 1027,8 0,0
09.12.2019 09:00:00 15,7 9,6 14 8 30 16 W 1027,3 0,0
09.12.2019 08:00:00 15,1 9,2 13 7 32 17 WSW 1026,9 0,0
09.12.2019 07:00:00 15,5 9,2 10 5 32 18 W 1026,6 -
09.12.2019 06:00:00 15,1 9,0 18 10 35 19 WSW 1026,2 0,0
09.12.2019 05:00:00 16,2 8,7 16 9 37 20 W 1025,6 0,0
09.12.2019 04:00:00 16,4 8,7 13 7 30 16 WNW 1026,3 0,0
09.12.2019 03:00:00 16,5 7,1 13 7 29 16 NW 1026,3 0,0
09.12.2019 02:00:00 16,6 6,4 14 8 42 23 WNW 1026,6 0,0
09.12.2019 01:00:00 17,3 6,2 22 12 38 21 NNW 1026,4 -
09.12.2019 00:00:00 17,8 6,1 20 11 36 19 NW 1026,5 0,0
08.12.2019 23:00:00 16,7 5,9 11 6 26 14 WNW 1026,2 0,0
08.12.2019 22:00:00 17,6 5,1 12 6 26 14 NW 1026,2 0,0
08.12.2019 21:00:00 17,6 5,1 9 5 28 15 W 1026,3 0,0
08.12.2019 20:00:00 18,1 5,0 14 7 24 13 W 1026,1 0,0
08.12.2019 19:00:00 18,8 5,6 13 7 23 12 W 1025,7 -
08.12.2019 18:00:00 19,7 4,1 12 7 21 11 W 1025,0 0,0
08.12.2019 17:00:00 20,7 4,6 11 6 29 16 WNW 1024,5 0,0
08.12.2019 16:00:00 22,0 4,5 8 5 29 15 W 1024,1 0,0
08.12.2019 15:00:00 21,5 4,5 13 7 26 14 W 1024,2 0,0
08.12.2019 14:00:00 21,3 5,9 11 6 35 19 WNW 1024,7 0,0
08.12.2019 13:00:00 20,2 7,6 11 6 23 12 WSW 1025,8 -
08.12.2019 12:00:00 18,3 6,5 11 6 21 11 WSW 1026,8 0,0
08.12.2019 11:00:00 18,2 7,8 1 1 11 6 ESE 1027,3 0,0
08.12.2019 10:00:00 16,4 7,8 1 1 19 10 NW 1026,8 0,0
08.12.2019 09:00:00 12,8 6,5 5 3 16 9 WNW 1026,3 0,0
08.12.2019 08:00:00 11,8 6,5 8 4 17 9 W 1026,5 0,0
08.12.2019 07:00:00 11,4 6,7 7 4 12 7 NW 1026,0 -
08.12.2019 06:00:00 11,4 6,7 3 2 11 6 NW 1025,7 0,0
08.12.2019 05:00:00 11,4 6,7 7 4 17 9 NNW 1025,9 0,0
08.12.2019 04:00:00 11,6 7,1 6 3 13 7 NNW 1026,3 0,0
08.12.2019 03:00:00 12,0 7,3 7 4 13 7 NNW 1026,5 0,0
08.12.2019 02:00:00 12,4 7,4 4 2 16 8 N 1026,4 0,0
08.12.2019 01:00:00 13,0 7,8 9 5 16 8 N 1026,5 -
08.12.2019 00:00:00 13,1 8,0 10 5 16 9 NNW 1026,6 0,0
07.12.2019 23:00:00 13,2 7,8 9 5 16 9 N 1026,4 0,0
07.12.2019 22:00:00 13,8 8,0 4 2 12 7 N 1026,1 0,0
07.12.2019 21:00:00 14,1 8,3 3 2 11 6 NNW 1025,6 0,0
07.12.2019 20:00:00 14,1 10,3 6 3 9 5 N 1025,1 0,0
07.12.2019 19:00:00 15,4 12,0 4 2 6 3 SSE 1024,6 -
07.12.2019 18:00:00 15,6 11,6 1 1 14 8 ESE 1024,1 0,0
07.12.2019 17:00:00 17,1 11,1 3 2 14 8 SE 1023,4 0,0
07.12.2019 16:00:00 17,7 11,0 4 2 16 9 E 1023,0 0,0
07.12.2019 15:00:00 18,0 11,1 4 2 15 8 SSE 1022,9 0,0
07.12.2019 14:00:00 18,4 10,5 9 5 21 11 S 1023,2 0,0
07.12.2019 13:00:00 19,5 6,5 9 5 18 10 SSW 1023,8 -
07.12.2019 12:00:00 20,4 7,7 4 2 13 7 WSW 1024,1 0,0
07.12.2019 11:00:00 18,7 10,0 1 1 13 7 W 1024,1 0,0
07.12.2019 10:00:00 14,9 8,7 7 4 12 6 W 1023,7 0,0
07.12.2019 09:00:00 14,7 8,9 5 3 17 9 NW 1023,1 0,0
07.12.2019 08:00:00 14,4 9,0 9 5 16 9 W 1022,5 0,0
07.12.2019 07:00:00 14,7 9,0 9 5 14 8 W 1022,0 -
07.12.2019 06:00:00 15,2 9,0 8 4 16 9 WNW 1021,7 0,0
07.12.2019 05:00:00 15,3 9,2 9 5 14 8 NW 1021,6 0,0
07.12.2019 04:00:00 15,1 9,2 5 3 15 8 NW 1021,9 0,0
07.12.2019 03:00:00 14,7 9,0 9 5 16 9 NW 1022,0 0,0
07.12.2019 02:00:00 14,6 8,8 5 3 13 7 NNW 1022,0 0,0
07.12.2019 01:00:00 14,6 8,9 7 4 16 9 NNW 1022,3 -
07.12.2019 00:00:00 14,4 8,5 7 4 16 9 N 1022,3 0,0
06.12.2019 23:00:00 14,3 8,7 6 3 14 8 N 1021,9 0,0
06.12.2019 22:00:00 14,3 8,7 8 4 16 9 N 1021,6 0,0
06.12.2019 21:00:00 14,6 9,2 9 5 16 8 NNW 1021,6 0,0
06.12.2019 20:00:00 15,0 10,2 6 4 13 7 NNW 1021,3 0,0
06.12.2019 19:00:00 15,9 11,7 7 4 13 7 SE 1020,7 -
06.12.2019 18:00:00 16,3 10,6 5 3 12 6 SSE 1020,1 0,0
06.12.2019 17:00:00 17,6 8,4 4 2 10 5 SSE 1019,5 0,0
06.12.2019 16:00:00 17,5 7,0 4 2 16 9 SSE 1019,2 0,0
06.12.2019 15:00:00 18,6 6,1 10 5 16 8 S 1018,8 0,0
06.12.2019 14:00:00 18,7 6,8 10 5 16 9 S 1019,0 0,0
06.12.2019 13:00:00 19,2 7,0 10 6 18 10 SW 1019,9 -
06.12.2019 12:00:00 18,9 7,3 5 3 17 9 WSW 1020,6 0,0
06.12.2019 11:00:00 16,1 7,3 8 4 16 9 W 1020,8 0,0

tt = temperature
td = dewpoint
ff = wind speed
fx = gusts
dd = wind direction
ppp = reduced air pressure
rr = precipitation

Next stations